sensor_id;sensor_type;location;lat;lon;timestamp;pressure;altitude;pressure_sealevel;temperature;humidity
28344;BME280;15597;50.914;6.638;2022-10-30T00:00:12;100970.38;;;20.53;53.43
28344;BME280;15597;50.914;6.638;2022-10-30T00:02:38;100979.31;;;20.52;53.39
28344;BME280;15597;50.914;6.638;2022-10-30T00:05:04;100985.47;;;20.53;53.67
28344;BME280;15597;50.914;6.638;2022-10-30T00:07:30;100979.31;;;20.52;53.49
28344;BME280;15597;50.914;6.638;2022-10-30T00:09:56;100984.63;;;20.52;53.60
28344;BME280;15597;50.914;6.638;2022-10-30T00:12:21;100982.91;;;20.51;53.48
28344;BME280;15597;50.914;6.638;2022-10-30T00:14:47;100988.41;;;20.48;53.62
28344;BME280;15597;50.914;6.638;2022-10-30T00:17:12;100986.75;;;20.46;53.42
28344;BME280;15597;50.914;6.638;2022-10-30T00:19:38;100987.72;;;20.44;53.47
28344;BME280;15597;50.914;6.638;2022-10-30T00:22:03;101000.16;;;20.44;53.33
28344;BME280;15597;50.914;6.638;2022-10-30T00:24:29;100996.56;;;20.45;53.45
28344;BME280;15597;50.914;6.638;2022-10-30T00:26:54;100992.19;;;20.44;53.64
28344;BME280;15597;50.914;6.638;2022-10-30T00:29:20;100995.50;;;20.48;53.50
28344;BME280;15597;50.914;6.638;2022-10-30T00:31:49;100999.03;;;20.48;53.67
28344;BME280;15597;50.914;6.638;2022-10-30T00:34:15;100995.50;;;20.48;53.57
28344;BME280;15597;50.914;6.638;2022-10-30T00:36:40;100990.13;;;20.49;53.63
28344;BME280;15597;50.914;6.638;2022-10-30T00:39:06;100997.16;;;20.50;53.40
28344;BME280;15597;50.914;6.638;2022-10-30T00:41:32;100997.16;;;20.50;53.62
28344;BME280;15597;50.914;6.638;2022-10-30T00:43:57;100981.19;;;20.50;53.48
28344;BME280;15597;50.914;6.638;2022-10-30T00:46:24;100979.47;;;20.49;53.56
28344;BME280;15597;50.914;6.638;2022-10-30T00:49:00;100986.88;;;20.44;53.44
28344;BME280;15597;50.914;6.638;2022-10-30T00:51:28;100977.06;;;20.44;53.08
28344;BME280;15597;50.914;6.638;2022-10-30T00:53:57;100980.78;;;20.42;53.27
28344;BME280;15597;50.914;6.638;2022-10-30T00:56:24;100981.72;;;20.41;53.05
28344;BME280;15597;50.914;6.638;2022-10-30T00:58:57;100980.19;;;20.37;53.37
28344;BME280;15597;50.914;6.638;2022-10-30T01:01:27;100974.88;;;20.37;53.20
28344;BME280;15597;50.914;6.638;2022-10-30T01:03:58;100983.09;;;20.32;53.73
28344;BME280;15597;50.914;6.638;2022-10-30T01:06:26;100985.69;;;20.34;53.80
28344;BME280;15597;50.914;6.638;2022-10-30T01:08:54;100991.84;;;20.34;53.51
28344;BME280;15597;50.914;6.638;2022-10-30T01:11:20;100982.91;;;20.35;53.54
28344;BME280;15597;50.914;6.638;2022-10-30T01:13:47;100988.22;;;20.35;53.54
28344;BME280;15597;50.914;6.638;2022-10-30T01:16:44;100989.44;;;20.29;53.92
28344;BME280;15597;50.914;6.638;2022-10-30T01:20:30;100994.66;;;20.31;53.95
28344;BME280;15597;50.914;6.638;2022-10-30T01:36:03;100990.56;;;20.25;53.93
28344;BME280;15597;50.914;6.638;2022-10-30T01:38:37;100994.75;;;20.29;53.93
28344;BME280;15597;50.914;6.638;2022-10-30T01:41:04;100992.69;;;20.35;53.84
28344;BME280;15597;50.914;6.638;2022-10-30T01:43:30;100979.47;;;20.33;53.60
28344;BME280;15597;50.914;6.638;2022-10-30T01:46:03;100984.81;;;20.33;53.84
28344;BME280;15597;50.914;6.638;2022-10-30T01:49:06;100985.06;;;20.28;53.88
28344;BME280;15597;50.914;6.638;2022-10-30T01:54:49;100975.56;;;20.24;53.57
28344;BME280;15597;50.914;6.638;2022-10-30T02:00:06;100975.41;;;20.27;53.26
28344;BME280;15597;50.914;6.638;2022-10-30T02:02:38;100971.78;;;20.28;53.25
28344;BME280;15597;50.914;6.638;2022-10-30T02:05:06;100958.50;;;20.28;53.34
28344;BME280;15597;50.914;6.638;2022-10-30T02:07:34;100960.63;;;20.06;53.74
28344;BME280;15597;50.914;6.638;2022-10-30T02:09:59;100963.88;;;20.11;53.39
28344;BME280;15597;50.914;6.638;2022-10-30T02:12:27;100971.06;;;20.09;53.28
28344;BME280;15597;50.914;6.638;2022-10-30T02:14:55;100958.91;;;20.05;53.21
28344;BME280;15597;50.914;6.638;2022-10-30T02:17:22;100959.84;;;20.04;53.09
28344;BME280;15597;50.914;6.638;2022-10-30T02:19:48;100957.38;;;20.00;53.23
28344;BME280;15597;50.914;6.638;2022-10-30T02:22:14;100958.47;;;19.96;53.46
28344;BME280;15597;50.914;6.638;2022-10-30T02:24:42;100963.97;;;19.93;53.46
28344;BME280;15597;50.914;6.638;2022-10-30T02:27:08;100968.63;;;19.88;53.76
28344;BME280;15597;50.914;6.638;2022-10-30T02:29:33;100970.53;;;19.86;53.85
28344;BME280;15597;50.914;6.638;2022-10-30T02:31:59;100971.47;;;19.85;53.97
28344;BME280;15597;50.914;6.638;2022-10-30T02:34:24;100973.19;;;19.86;53.99
28344;BME280;15597;50.914;6.638;2022-10-30T02:36:50;100963.44;;;19.87;53.86
28344;BME280;15597;50.914;6.638;2022-10-30T02:39:16;100963.31;;;19.88;53.96
28344;BME280;15597;50.914;6.638;2022-10-30T02:41:42;100965.97;;;19.88;53.98
28344;BME280;15597;50.914;6.638;2022-10-30T02:44:10;100956.47;;;19.84;53.95
28344;BME280;15597;50.914;6.638;2022-10-30T02:46:35;100964.28;;;19.87;53.87
28344;BME280;15597;50.914;6.638;2022-10-30T02:49:01;100966.16;;;19.85;53.96
28344;BME280;15597;50.914;6.638;2022-10-30T02:51:27;100965.97;;;19.88;54.01
28344;BME280;15597;50.914;6.638;2022-10-30T02:53:55;100968.81;;;19.69;54.39
28344;BME280;15597;50.914;6.638;2022-10-30T02:56:21;100958.69;;;19.76;54.31
28344;BME280;15597;50.914;6.638;2022-10-30T02:58:46;100959.47;;;19.78;54.09
28344;BME280;15597;50.914;6.638;2022-10-30T03:01:14;100967.25;;;19.81;53.98
28344;BME280;15597;50.914;6.638;2022-10-30T03:03:41;100960.06;;;19.83;53.96
28344;BME280;15597;50.914;6.638;2022-10-30T03:06:10;100960.16;;;19.81;53.62
28344;BME280;15597;50.914;6.638;2022-10-30T03:08:36;100969.84;;;19.82;53.71
28344;BME280;15597;50.914;6.638;2022-10-30T03:11:05;100976.94;;;19.66;54.01
28344;BME280;15597;50.914;6.638;2022-10-30T03:13:31;100980.97;;;19.73;53.83
28344;BME280;15597;50.914;6.638;2022-10-30T03:16:06;100981.97;;;19.70;53.63
28344;BME280;15597;50.914;6.638;2022-10-30T03:18:33;100972.84;;;19.76;53.95
28344;BME280;15597;50.914;6.638;2022-10-30T03:21:06;100971.03;;;19.77;53.64
28344;BME280;15597;50.914;6.638;2022-10-30T03:23:33;100965.72;;;19.77;53.93
28344;BME280;15597;50.914;6.638;2022-10-30T03:26:00;100961.44;;;19.74;53.80
28344;BME280;15597;50.914;6.638;2022-10-30T03:28:27;100964.16;;;19.73;53.72
28344;BME280;15597;50.914;6.638;2022-10-30T03:31:00;100963.56;;;19.67;53.79
28344;BME280;15597;50.914;6.638;2022-10-30T03:33:26;100969.66;;;19.69;53.94
28344;BME280;15597;50.914;6.638;2022-10-30T03:35:51;100977.59;;;19.69;53.73
28344;BME280;15597;50.914;6.638;2022-10-30T03:38:17;100973.25;;;19.68;53.43
28344;BME280;15597;50.914;6.638;2022-10-30T03:40:43;100972.41;;;19.68;53.52
28344;BME280;15597;50.914;6.638;2022-10-30T03:43:08;100976.00;;;19.67;53.50
28344;BME280;15597;50.914;6.638;2022-10-30T03:45:35;100993.69;;;19.66;53.57
28344;BME280;15597;50.914;6.638;2022-10-30T03:48:05;100992.09;;;19.64;53.53
28344;BME280;15597;50.914;6.638;2022-10-30T03:50:31;100992.09;;;19.64;53.48
28344;BME280;15597;50.914;6.638;2022-10-30T03:52:57;100995.69;;;19.63;53.80
28344;BME280;15597;50.914;6.638;2022-10-30T03:55:24;101000.13;;;19.62;53.56
28344;BME280;15597;50.914;6.638;2022-10-30T03:57:50;100995.81;;;19.60;53.53
28344;BME280;15597;50.914;6.638;2022-10-30T04:00:17;101009.19;;;19.58;53.90
28344;BME280;15597;50.914;6.638;2022-10-30T04:02:56;101003.09;;;19.56;53.64
28344;BME280;15597;50.914;6.638;2022-10-30T04:05:23;101000.50;;;19.54;53.48
28344;BME280;15597;50.914;6.638;2022-10-30T04:07:56;101005.91;;;19.53;53.52
28344;BME280;15597;50.914;6.638;2022-10-30T04:10:22;101003.25;;;19.53;53.22
28344;BME280;15597;50.914;6.638;2022-10-30T04:12:48;101001.59;;;19.50;53.27
28344;BME280;15597;50.914;6.638;2022-10-30T04:15:14;101003.47;;;19.48;53.30
28344;BME280;15597;50.914;6.638;2022-10-30T04:17:39;101000.94;;;19.47;53.45
28344;BME280;15597;50.914;6.638;2022-10-30T04:20:06;100994.91;;;19.43;53.49
28344;BME280;15597;50.914;6.638;2022-10-30T04:22:31;100994.13;;;19.41;53.37
28344;BME280;15597;50.914;6.638;2022-10-30T04:24:57;100997.81;;;19.38;53.39
28344;BME280;15597;50.914;6.638;2022-10-30T04:27:23;101005.84;;;19.37;53.48
28344;BME280;15597;50.914;6.638;2022-10-30T04:29:48;101000.69;;;19.34;53.60
28344;BME280;15597;50.914;6.638;2022-10-30T04:32:14;100991.97;;;19.32;53.58
28344;BME280;15597;50.914;6.638;2022-10-30T04:34:40;100991.13;;;19.31;53.56
28344;BME280;15597;50.914;6.638;2022-10-30T04:37:06;100998.19;;;19.31;53.61
28344;BME280;15597;50.914;6.638;2022-10-30T04:39:32;100998.28;;;19.29;53.70
28344;BME280;15597;50.914;6.638;2022-10-30T04:42:05;100995.81;;;19.26;53.68
28344;BME280;15597;50.914;6.638;2022-10-30T04:44:33;100994.00;;;19.26;53.72
28344;BME280;15597;50.914;6.638;2022-10-30T04:46:58;100993.22;;;19.24;53.60
28344;BME280;15597;50.914;6.638;2022-10-30T04:49:24;100990.66;;;19.23;53.62
28344;BME280;15597;50.914;6.638;2022-10-30T04:51:49;100988.00;;;19.23;53.37
28344;BME280;15597;50.914;6.638;2022-10-30T04:54:16;100988.00;;;19.23;53.43
28344;BME280;15597;50.914;6.638;2022-10-30T04:56:41;100984.56;;;19.21;53.59
28344;BME280;15597;50.914;6.638;2022-10-30T04:59:07;100983.84;;;19.17;53.55
28344;BME280;15597;50.914;6.638;2022-10-30T05:01:32;100977.94;;;19.12;53.62
28344;BME280;15597;50.914;6.638;2022-10-30T05:04:00;100978.16;;;19.07;53.75
28344;BME280;15597;50.914;6.638;2022-10-30T05:06:28;100970.34;;;19.04;53.73
28344;BME280;15597;50.914;6.638;2022-10-30T05:08:55;100968.78;;;19.00;53.78
28344;BME280;15597;50.914;6.638;2022-10-30T05:11:32;100972.59;;;18.94;53.80
28344;BME280;15597;50.914;6.638;2022-10-30T05:13:57;100970.78;;;18.95;53.96
28344;BME280;15597;50.914;6.638;2022-10-30T05:16:23;100969.16;;;18.92;53.98
28344;BME280;15597;50.914;6.638;2022-10-30T05:18:50;100957.69;;;18.92;54.04
28344;BME280;15597;50.914;6.638;2022-10-30T05:21:16;100950.53;;;18.94;53.86
28344;BME280;15597;50.914;6.638;2022-10-30T05:23:41;100950.53;;;18.94;53.52
28344;BME280;15597;50.914;6.638;2022-10-30T05:26:07;100958.41;;;18.95;53.44
28344;BME280;15597;50.914;6.638;2022-10-30T05:28:33;100954.88;;;18.95;53.54
28344;BME280;15597;50.914;6.638;2022-10-30T05:30:58;100951.44;;;18.93;53.42
28344;BME280;15597;50.914;6.638;2022-10-30T05:33:44;100952.50;;;18.90;53.70
28344;BME280;15597;50.914;6.638;2022-10-30T05:36:10;100949.13;;;18.87;53.75
28344;BME280;15597;50.914;6.638;2022-10-30T05:38:35;100943.97;;;18.83;53.88
28344;BME280;15597;50.914;6.638;2022-10-30T05:41:01;100938.75;;;18.82;54.01
28344;BME280;15597;50.914;6.638;2022-10-30T05:43:27;100935.25;;;18.81;54.01
28344;BME280;15597;50.914;6.638;2022-10-30T05:45:53;100935.25;;;18.81;54.00
28344;BME280;15597;50.914;6.638;2022-10-30T05:48:19;100942.25;;;18.82;53.71
28344;BME280;15597;50.914;6.638;2022-10-30T05:50:45;100943.19;;;18.81;53.68
28344;BME280;15597;50.914;6.638;2022-10-30T05:53:19;100949.44;;;18.80;53.61
28344;BME280;15597;50.914;6.638;2022-10-30T05:55:44;100948.66;;;18.78;53.70
28344;BME280;15597;50.914;6.638;2022-10-30T05:58:16;100945.22;;;18.76;53.93
28344;BME280;15597;50.914;6.638;2022-10-30T06:00:43;100958.47;;;18.76;53.80
28344;BME280;15597;50.914;6.638;2022-10-30T06:03:12;100954.88;;;18.77;53.77
28344;BME280;15597;50.914;6.638;2022-10-30T06:05:43;100955.03;;;18.74;53.78
28344;BME280;15597;50.914;6.638;2022-10-30T06:08:09;100962.06;;;18.75;53.69
28344;BME280;15597;50.914;6.638;2022-10-30T06:10:35;100957.63;;;18.76;53.82
28344;BME280;15597;50.914;6.638;2022-10-30T06:13:13;100958.56;;;18.75;53.87
28344;BME280;15597;50.914;6.638;2022-10-30T06:16:05;100963.09;;;18.73;53.96
28344;BME280;15597;50.914;6.638;2022-10-30T06:18:53;100954.41;;;18.69;54.07
28344;BME280;15597;50.914;6.638;2022-10-30T06:21:19;100964.97;;;18.71;54.16
28344;BME280;15597;50.914;6.638;2022-10-30T06:23:52;100967.66;;;18.69;54.03
28344;BME280;15597;50.914;6.638;2022-10-30T06:26:28;100970.31;;;18.69;54.13
28344;BME280;15597;50.914;6.638;2022-10-30T06:28:59;100971.25;;;18.68;54.02
28344;BME280;15597;50.914;6.638;2022-10-30T06:31:24;100973.91;;;18.68;54.07
28344;BME280;15597;50.914;6.638;2022-10-30T06:33:50;100969.53;;;18.67;54.04
28344;BME280;15597;50.914;6.638;2022-10-30T06:36:16;100968.69;;;18.66;54.01
28344;BME280;15597;50.914;6.638;2022-10-30T06:38:42;100973.13;;;18.66;53.96
28344;BME280;15597;50.914;6.638;2022-10-30T06:41:09;100971.41;;;18.65;54.16
28344;BME280;15597;50.914;6.638;2022-10-30T06:44:07;100971.56;;;18.62;54.22
28344;BME280;15597;50.914;6.638;2022-10-30T06:46:35;100962.66;;;18.63;53.94
28344;BME280;15597;50.914;6.638;2022-10-30T06:49:01;100975.00;;;18.64;54.01
28344;BME280;15597;50.914;6.638;2022-10-30T06:51:27;100980.28;;;18.64;53.93
28344;BME280;15597;50.914;6.638;2022-10-30T06:53:53;100985.59;;;18.64;53.99
28344;BME280;15597;50.914;6.638;2022-10-30T06:56:37;100971.56;;;18.62;54.20
28344;BME280;15597;50.914;6.638;2022-10-30T06:59:07;100976.84;;;18.62;53.98
28344;BME280;15597;50.914;6.638;2022-10-30T07:01:44;100978.72;;;18.60;54.04
28344;BME280;15597;50.914;6.638;2022-10-30T07:04:13;100976.06;;;18.60;53.93
28344;BME280;15597;50.914;6.638;2022-10-30T07:06:39;100973.41;;;18.60;53.90
28344;BME280;15597;50.914;6.638;2022-10-30T07:11:31;100983.34;;;18.56;53.91
28344;BME280;15597;50.914;6.638;2022-10-30T07:14:26;100975.75;;;18.48;53.91
28344;BME280;15597;50.914;6.638;2022-10-30T07:17:09;100974.31;;;18.41;54.04
28344;BME280;15597;50.914;6.638;2022-10-30T07:19:35;100972.47;;;18.43;54.14
28344;BME280;15597;50.914;6.638;2022-10-30T07:22:02;100970.75;;;18.42;54.36
28344;BME280;15597;50.914;6.638;2022-10-30T07:24:28;100975.16;;;18.42;54.33
28344;BME280;15597;50.914;6.638;2022-10-30T07:27:14;100971.69;;;18.41;54.25
28344;BME280;15597;50.914;6.638;2022-10-30T07:29:44;100969.03;;;18.41;54.46
28344;BME280;15597;50.914;6.638;2022-10-30T07:32:18;100971.53;;;18.44;54.22
28344;BME280;15597;50.914;6.638;2022-10-30T07:34:50;100963.44;;;18.47;54.23
28344;BME280;15597;50.914;6.638;2022-10-30T07:37:28;100970.44;;;18.48;54.24
28344;BME280;15597;50.914;6.638;2022-10-30T07:39:59;100965.97;;;18.49;54.18
28344;BME280;15597;50.914;6.638;2022-10-30T07:42:42;100968.72;;;18.47;54.20
28344;BME280;15597;50.914;6.638;2022-10-30T07:45:27;100964.41;;;18.45;54.34
28344;BME280;15597;50.914;6.638;2022-10-30T07:48:15;100974.31;;;18.41;54.50
28344;BME280;15597;50.914;6.638;2022-10-30T07:50:52;100972.75;;;18.37;54.59
28344;BME280;15597;50.914;6.638;2022-10-30T07:53:18;100978.19;;;18.34;54.63
28344;BME280;15597;50.914;6.638;2022-10-30T07:55:45;100978.19;;;18.34;54.87
28344;BME280;15597;50.914;6.638;2022-10-30T07:58:13;100975.50;;;18.16;55.06
28344;BME280;15597;50.914;6.638;2022-10-30T08:01:11;100986.75;;;18.21;55.28
28344;BME280;15597;50.914;6.638;2022-10-30T08:03:37;100982.91;;;18.27;55.12
28344;BME280;15597;50.914;6.638;2022-10-30T08:06:09;100982.72;;;18.32;55.26
28344;BME280;15597;50.914;6.638;2022-10-30T08:08:35;100982.63;;;18.33;55.40
28344;BME280;15597;50.914;6.638;2022-10-30T08:11:21;100979.03;;;18.34;55.59
28344;BME280;15597;50.914;6.638;2022-10-30T08:13:47;100982.41;;;18.38;55.62
28344;BME280;15597;50.914;6.638;2022-10-30T08:16:12;100983.22;;;18.40;55.84
28344;BME280;15597;50.914;6.638;2022-10-30T08:18:39;100982.19;;;18.43;55.80
28344;BME280;15597;50.914;6.638;2022-10-30T08:21:07;100974.97;;;18.46;55.81
28344;BME280;15597;50.914;6.638;2022-10-30T08:23:33;100973.09;;;18.48;56.07
28344;BME280;15597;50.914;6.638;2022-10-30T08:26:04;100965.06;;;18.50;56.07
28344;BME280;15597;50.914;6.638;2022-10-30T08:28:34;100967.56;;;18.53;55.97
28344;BME280;15597;50.914;6.638;2022-10-30T08:31:01;100970.09;;;18.56;56.34
28344;BME280;15597;50.914;6.638;2022-10-30T08:33:46;100970.00;;;18.58;56.21
28344;BME280;15597;50.914;6.638;2022-10-30T08:36:28;100970.78;;;18.60;56.20
28344;BME280;15597;50.914;6.638;2022-10-30T08:38:54;100966.25;;;18.62;56.21
28344;BME280;15597;50.914;6.638;2022-10-30T08:41:34;100973.13;;;18.66;56.16
28344;BME280;15597;50.914;6.638;2022-10-30T08:44:00;100970.31;;;18.69;56.39
28344;BME280;15597;50.914;6.638;2022-10-30T08:46:35;100965.72;;;18.73;56.05
28344;BME280;15597;50.914;6.638;2022-10-30T08:49:00;100952.22;;;18.77;56.20
28344;BME280;15597;50.914;6.638;2022-10-30T08:51:31;100951.28;;;18.78;56.07
28344;BME280;15597;50.914;6.638;2022-10-30T08:53:57;100954.66;;;18.82;56.17
28344;BME280;15597;50.914;6.638;2022-10-30T08:56:22;100960.59;;;18.87;56.27
28344;BME280;15597;50.914;6.638;2022-10-30T08:58:59;100959.56;;;18.90;56.23
28344;BME280;15597;50.914;6.638;2022-10-30T09:01:26;100962.84;;;18.95;56.08
28344;BME280;15597;50.914;6.638;2022-10-30T09:04:18;100952.22;;;18.95;56.48
28344;BME280;15597;50.914;6.638;2022-10-30T09:06:50;100957.25;;;19.01;56.29
28344;BME280;15597;50.914;6.638;2022-10-30T09:09:47;100946.44;;;19.06;56.45
28344;BME280;15597;50.914;6.638;2022-10-30T09:12:13;100944.31;;;19.12;56.57
28344;BME280;15597;50.914;6.638;2022-10-30T09:14:42;100944.16;;;19.16;56.50
28344;BME280;15597;50.914;6.638;2022-10-30T09:17:09;100950.09;;;19.21;56.36
28344;BME280;15597;50.914;6.638;2022-10-30T09:19:36;100934.78;;;19.26;56.30
28344;BME280;15597;50.914;6.638;2022-10-30T09:22:02;100933.59;;;19.32;56.26
28344;BME280;15597;50.914;6.638;2022-10-30T09:24:29;100939.59;;;19.35;56.20
28344;BME280;15597;50.914;6.638;2022-10-30T09:27:18;100933.19;;;19.39;56.22
28344;BME280;15597;50.914;6.638;2022-10-30T09:29:47;100933.81;;;19.45;56.32
28344;BME280;15597;50.914;6.638;2022-10-30T09:32:19;100936.75;;;19.56;56.15
28344;BME280;15597;50.914;6.638;2022-10-30T09:35:03;100938.13;;;19.63;55.92
28344;BME280;15597;50.914;6.638;2022-10-30T09:37:36;100931.53;;;19.70;56.05
28344;BME280;15597;50.914;6.638;2022-10-30T09:40:06;100937.44;;;19.76;55.75
28344;BME280;15597;50.914;6.638;2022-10-30T09:42:43;100933.00;;;19.76;55.72
28344;BME280;15597;50.914;6.638;2022-10-30T09:45:41;100931.81;;;19.82;55.87
28344;BME280;15597;50.914;6.638;2022-10-30T09:51:28;100923.63;;;20.03;55.75
28344;BME280;15597;50.914;6.638;2022-10-30T09:56:44;100928.75;;;20.22;55.24
28344;BME280;15597;50.914;6.638;2022-10-30T10:04:40;100931.88;;;20.44;55.50
28344;BME280;15597;50.914;6.638;2022-10-30T10:07:21;100937.78;;;20.50;55.82
28344;BME280;15597;50.914;6.638;2022-10-30T10:09:56;100932.13;;;20.56;55.13
28344;BME280;15597;50.914;6.638;2022-10-30T10:12:57;100925.59;;;20.62;55.52
28344;BME280;15597;50.914;6.638;2022-10-30T10:15:39;100927.91;;;20.68;55.32
28344;BME280;15597;50.914;6.638;2022-10-30T10:18:22;100925.16;;;20.69;54.93
28344;BME280;15597;50.914;6.638;2022-10-30T10:20:53;100923.94;;;20.75;54.93
28344;BME280;15597;50.914;6.638;2022-10-30T10:34:31;100915.00;;;20.76;54.54
28344;BME280;15597;50.914;6.638;2022-10-30T10:48:54;100909.19;;;21.00;54.68
28344;BME280;15597;50.914;6.638;2022-10-30T10:51:34;100916.91;;;21.05;54.76
28344;BME280;15597;50.914;6.638;2022-10-30T10:54:15;100908.75;;;21.08;54.63
28344;BME280;15597;50.914;6.638;2022-10-30T10:56:45;100915.09;;;21.20;54.48
28344;BME280;15597;50.914;6.638;2022-10-30T10:59:26;100904.13;;;21.26;54.05
28344;BME280;15597;50.914;6.638;2022-10-30T11:02:39;100906.00;;;21.24;54.52
28344;BME280;15597;50.914;6.638;2022-10-30T11:05:26;100914.56;;;21.29;54.41
28344;BME280;15597;50.914;6.638;2022-10-30T11:07:59;100895.25;;;21.40;54.20
28344;BME280;15597;50.914;6.638;2022-10-30T11:10:26;100888.41;;;21.50;54.18
28344;BME280;15597;50.914;6.638;2022-10-30T11:12:53;100890.59;;;21.58;53.68
28344;BME280;15597;50.914;6.638;2022-10-30T11:15:35;100889.44;;;21.62;53.58
28344;BME280;15597;50.914;6.638;2022-10-30T11:18:08;100883.00;;;21.66;53.65
28344;BME280;15597;50.914;6.638;2022-10-30T11:23:28;100887.19;;;21.70;54.00
28344;BME280;15597;50.914;6.638;2022-10-30T11:25:54;100882.13;;;21.80;53.95
28344;BME280;15597;50.914;6.638;2022-10-30T11:28:33;100886.59;;;21.80;53.87
28344;BME280;15597;50.914;6.638;2022-10-30T11:31:23;100872.31;;;21.81;53.93
28344;BME280;15597;50.914;6.638;2022-10-30T11:33:52;100877.16;;;21.88;53.85
28344;BME280;15597;50.914;6.638;2022-10-30T11:36:22;100874.94;;;21.95;53.99
28344;BME280;15597;50.914;6.638;2022-10-30T11:38:49;100875.19;;;22.05;53.55
28344;BME280;15597;50.914;6.638;2022-10-30T11:41:16;100873.94;;;22.11;53.29
28344;BME280;15597;50.914;6.638;2022-10-30T11:43:43;100872.00;;;22.13;53.57
28344;BME280;15597;50.914;6.638;2022-10-30T11:46:16;100869.91;;;22.18;53.54
28344;BME280;15597;50.914;6.638;2022-10-30T11:48:45;100867.97;;;22.20;53.44
28344;BME280;15597;50.914;6.638;2022-10-30T11:51:11;100869.41;;;22.26;53.49
28344;BME280;15597;50.914;6.638;2022-10-30T11:53:56;100867.78;;;22.23;53.62
28344;BME280;15597;50.914;6.638;2022-10-30T11:56:22;100867.00;;;22.36;53.71
28344;BME280;15597;50.914;6.638;2022-10-30T11:58:52;100862.63;;;22.35;53.39
28344;BME280;15597;50.914;6.638;2022-10-30T12:01:23;100859.94;;;22.35;53.40
28344;BME280;15597;50.914;6.638;2022-10-30T12:03:50;100870.41;;;22.38;53.43
28344;BME280;15597;50.914;6.638;2022-10-30T12:06:26;100861.44;;;22.39;53.17
28344;BME280;15597;50.914;6.638;2022-10-30T12:11:30;100864.66;;;22.44;53.90
28344;BME280;15597;50.914;6.638;2022-10-30T12:13:57;100869.19;;;22.56;53.93
28344;BME280;15597;50.914;6.638;2022-10-30T12:16:23;100867.91;;;22.62;53.93
28344;BME280;15597;50.914;6.638;2022-10-30T12:19:05;100869.53;;;22.65;53.54
28344;BME280;15597;50.914;6.638;2022-10-30T12:21:39;100869.84;;;22.73;53.98
28344;BME280;15597;50.914;6.638;2022-10-30T12:24:27;100866.00;;;22.77;53.79
28344;BME280;15597;50.914;6.638;2022-10-30T12:26:55;100859.09;;;22.87;53.82
28344;BME280;15597;50.914;6.638;2022-10-30T12:29:27;100865.81;;;22.93;53.53
28344;BME280;15597;50.914;6.638;2022-10-30T12:32:07;100863.03;;;22.95;53.56
28344;BME280;15597;50.914;6.638;2022-10-30T12:34:57;100855.16;;;22.93;53.63
28344;BME280;15597;50.914;6.638;2022-10-30T12:37:43;100855.56;;;23.00;53.57
28344;BME280;15597;50.914;6.638;2022-10-30T12:40:14;100850.09;;;23.14;53.11
28344;BME280;15597;50.914;6.638;2022-10-30T12:42:53;100858.75;;;23.18;53.19
28344;BME280;15597;50.914;6.638;2022-10-30T12:45:40;100847.13;;;23.19;53.14
28344;BME280;15597;50.914;6.638;2022-10-30T12:48:33;100850.53;;;23.21;53.01
28344;BME280;15597;50.914;6.638;2022-10-30T12:51:19;100846.38;;;23.30;52.75
28344;BME280;15597;50.914;6.638;2022-10-30T12:53:59;100845.72;;;23.39;52.82
28344;BME280;15597;50.914;6.638;2022-10-30T12:56:36;100849.75;;;23.45;52.59
28344;BME280;15597;50.914;6.638;2022-10-30T13:07:46;100836.56;;;23.68;52.74
28344;BME280;15597;50.914;6.638;2022-10-30T13:10:21;100836.97;;;23.74;52.04
28344;BME280;15597;50.914;6.638;2022-10-30T13:12:53;100835.56;;;23.82;52.06
28344;BME280;15597;50.914;6.638;2022-10-30T13:15:34;100837.91;;;23.86;51.89
28344;BME280;15597;50.914;6.638;2022-10-30T13:18:13;100831.22;;;23.92;51.66
28344;BME280;15597;50.914;6.638;2022-10-30T13:20:42;100833.25;;;24.01;51.87
28344;BME280;15597;50.914;6.638;2022-10-30T13:23:25;100840.06;;;24.05;51.37
28344;BME280;15597;50.914;6.638;2022-10-30T13:26:35;100841.66;;;24.08;51.92
28344;BME280;15597;50.914;6.638;2022-10-30T13:34:15;100849.13;;;24.27;51.42
28344;BME280;15597;50.914;6.638;2022-10-30T13:37:40;100840.41;;;24.36;51.05
28344;BME280;15597;50.914;6.638;2022-10-30T13:40:03;100844.94;;;24.36;51.22
28344;BME280;15597;50.914;6.638;2022-10-30T13:45:59;100836.09;;;24.47;51.05
28344;BME280;15597;50.914;6.638;2022-10-30T13:48:41;100840.97;;;24.53;51.12
28344;BME280;15597;50.914;6.638;2022-10-30T13:54:04;100838.56;;;24.61;50.25
28344;BME280;15597;50.914;6.638;2022-10-30T13:56:33;100838.38;;;24.76;49.60
28344;BME280;15597;50.914;6.638;2022-10-30T14:04:39;100831.56;;;25.06;50.71
28344;BME280;15597;50.914;6.638;2022-10-30T14:15:31;100827.88;;;25.41;49.55
28344;BME280;15597;50.914;6.638;2022-10-30T14:20:47;100827.69;;;25.56;48.63
28344;BME280;15597;50.914;6.638;2022-10-30T14:28:48;100826.72;;;25.45;48.52
28344;BME280;15597;50.914;6.638;2022-10-30T14:31:31;100829.63;;;25.54;48.46
28344;BME280;15597;50.914;6.638;2022-10-30T14:33:59;100825.44;;;25.72;47.98
28344;BME280;15597;50.914;6.638;2022-10-30T14:50:21;100823.97;;;25.79;46.00
28344;BME280;15597;50.914;6.638;2022-10-30T14:58:38;100828.16;;;25.61;45.94
28344;BME280;15597;50.914;6.638;2022-10-30T15:07:10;100835.44;;;25.36;46.12
28344;BME280;15597;50.914;6.638;2022-10-30T15:15:16;100840.31;;;25.19;45.97
28344;BME280;15597;50.914;6.638;2022-10-30T15:17:46;100852.00;;;25.18;46.05
28344;BME280;15597;50.914;6.638;2022-10-30T15:22:43;100863.44;;;25.09;45.91
28344;BME280;15597;50.914;6.638;2022-10-30T15:25:21;100861.75;;;24.97;45.56
28344;BME280;15597;50.914;6.638;2022-10-30T15:27:54;100864.91;;;24.90;46.01
28344;BME280;15597;50.914;6.638;2022-10-30T15:30:23;100860.88;;;24.85;45.66